Time;durP1;ratioP1;P1;durP2;ratioP2;P2;SDS_P1;SDS_P2;PMS_P1;PMS_P2;Temp;Humidity;BMP_temperature;BMP_pressure;BME280_temperature;BME280_humidity;BME280_pressure;Samples;Min_cycle;Max_cycle;Signal;HPM_P1;HPM_P2
2021/12/31 00:00:36;;;;;;;;;;;14.60;99.90;;;;;;5013440;28;19988;-73
2021/12/31 00:03:01;;;;;;;;;;;14.60;99.90;;;;;;5014001;28;19914;-71
2021/12/31 00:05:27;;;;;;;;;;;14.60;99.90;;;;;;5013436;28;20008;-72
2021/12/31 00:07:53;;;;;;;;;;;14.60;99.90;;;;;;5013381;28;20008;-73
2021/12/31 00:10:18;;;;;;;;;;;14.50;99.90;;;;;;5013451;28;19913;-73
2021/12/31 00:12:44;;;;;;;;;;;14.60;99.90;;;;;;5013319;28;19925;-73
2021/12/31 00:15:11;;;;;;;;;;;14.50;99.90;;;;;;5013636;28;20051;-72
2021/12/31 00:17:36;;;;;;;;;;;14.60;99.90;;;;;;5013324;28;19979;-73
2021/12/31 00:20:07;;;;;;;;;;;14.60;99.90;;;;;;5013097;28;19917;-73
2021/12/31 00:25:02;;;;;;;;;;;14.60;99.90;;;;;;5013651;28;19929;-73
2021/12/31 00:27:27;;;;;;;;;;;14.60;99.90;;;;;;5013057;28;19910;-72
2021/12/31 00:29:53;;;;;;;;;;;14.50;99.90;;;;;;5012741;28;19936;-73
2021/12/31 00:32:18;;;;;;;;;;;14.60;99.90;;;;;;5013060;28;19971;-73
2021/12/31 00:34:44;;;;;;;;;;;14.50;99.90;;;;;;5012837;28;20331;-72
2021/12/31 00:37:10;;;;;;;;;;;14.60;99.90;;;;;;5013064;28;19913;-73
2021/12/31 00:39:35;;;;;;;;;;;14.60;99.90;;;;;;5011739;28;19910;-72
2021/12/31 00:42:01;;;;;;;;;;;14.60;99.90;;;;;;5013271;28;19953;-70
2021/12/31 00:44:26;;;;;;;;;;;14.60;99.90;;;;;;5012861;28;19930;-73
2021/12/31 00:46:52;;;;;;;;;;;14.60;99.90;;;;;;5012761;28;20511;-73
2021/12/31 00:49:17;;;;;;;;;;;14.60;99.90;;;;;;5013089;28;19918;-73
2021/12/31 00:51:43;;;;;;;;;;;14.60;99.90;;;;;;5012708;28;19914;-72
2021/12/31 00:54:08;;;;;;;;;;;14.50;99.90;;;;;;5013181;28;19953;-72
2021/12/31 00:56:33;;;;;;;;;;;14.50;99.90;;;;;;5012709;28;19932;-73
2021/12/31 00:59:00;;;;;;;;;;;14.50;99.90;;;;;;5012604;28;19949;-73
2021/12/31 01:01:25;;;;;;;;;;;14.60;99.90;;;;;;5012743;28;20024;-73
2021/12/31 01:03:51;;;;;;;;;;;14.60;99.90;;;;;;5011965;28;20012;-73
2021/12/31 01:06:17;;;;;;;;;;;14.60;99.90;;;;;;5011838;28;20354;-73
2021/12/31 01:08:43;;;;;;;;;;;14.50;99.90;;;;;;5012749;28;20004;-73
2021/12/31 01:11:09;;;;;;;;;;;14.50;99.90;;;;;;5012566;28;19917;-73
2021/12/31 01:13:55;;;;;;;;;;;14.50;99.90;;;;;;5012368;28;19913;-72
2021/12/31 01:16:23;;;;;;;;;;;14.60;99.90;;;;;;5011392;28;20086;-75
2021/12/31 01:21:14;;;;;;;;;;;14.60;99.90;;;;;;5013203;28;20022;-73
2021/12/31 01:23:40;;;;;;;;;;;14.50;99.90;;;;;;5013220;28;19913;-75
2021/12/31 01:26:06;;;;;;;;;;;14.60;99.90;;;;;;5012073;28;20339;-73
2021/12/31 01:28:31;;;;;;;;;;;14.60;99.90;;;;;;5012092;28;19925;-73
2021/12/31 01:30:57;;;;;;;;;;;14.60;99.90;;;;;;5011947;28;19975;-71
2021/12/31 01:33:22;;;;;;;;;;;14.60;99.90;;;;;;5012088;28;19918;-73
2021/12/31 01:35:48;;;;;;;;;;;14.60;99.90;;;;;;5012443;28;19913;-73
2021/12/31 01:38:15;;;;;;;;;;;14.60;99.90;;;;;;5012029;28;20000;-72
2021/12/31 01:40:41;;;;;;;;;;;14.60;99.90;;;;;;5012023;28;19921;-73
2021/12/31 01:43:06;;;;;;;;;;;14.60;99.90;;;;;;5011946;28;19983;-72
2021/12/31 01:45:34;;;;;;;;;;;14.50;99.90;;;;;;5012062;28;19968;-73
2021/12/31 01:48:09;;;;;;;;;;;14.50;99.90;;;;;;5012588;28;19906;-73
2021/12/31 01:50:35;;;;;;;;;;;14.50;99.90;;;;;;5011959;28;19968;-72
2021/12/31 01:53:01;;;;;;;;;;;14.50;99.90;;;;;;5012024;28;19914;-73
2021/12/31 01:55:29;;;;;;;;;;;14.50;99.90;;;;;;5011048;28;19924;-72
2021/12/31 01:57:55;;;;;;;;;;;14.50;99.90;;;;;;5011747;28;19914;-73
2021/12/31 02:00:21;;;;;;;;;;;14.50;99.90;;;;;;5012007;28;19964;-72
2021/12/31 02:02:47;;;;;;;;;;;14.40;99.90;;;;;;5012381;28;20273;-72
2021/12/31 02:05:14;;;;;;;;;;;14.40;99.90;;;;;;5011798;28;19917;-73
2021/12/31 02:07:40;;;;;;;;;;;14.40;99.90;;;;;;5011898;28;19940;-72
2021/12/31 02:10:06;;;;;;;;;;;14.40;99.90;;;;;;5010833;28;20339;-73
2021/12/31 02:12:32;;;;;;;;;;;14.40;99.90;;;;;;5011735;28;19909;-73
2021/12/31 02:14:58;;;;;;;;;;;14.30;99.90;;;;;;5012301;28;19948;-72
2021/12/31 02:17:23;;;;;;;;;;;14.30;99.90;;;;;;5011743;28;19918;-72
2021/12/31 02:20:01;;;;;;;;;;;14.30;99.90;;;;;;5011422;28;20232;-73
2021/12/31 02:22:28;;;;;;;;;;;14.30;99.90;;;;;;5015435;28;20012;-72
2021/12/31 02:24:55;;;;;;;;;;;14.30;99.90;;;;;;5015534;28;20001;-73
2021/12/31 02:27:21;;;;;;;;;;;14.20;99.90;;;;;;5014231;28;20055;-73
2021/12/31 02:29:47;;;;;;;;;;;14.30;99.90;;;;;;5015854;28;20327;-73
2021/12/31 02:32:12;;;;;;;;;;;14.30;99.90;;;;;;5015113;28;19937;-73
2021/12/31 02:34:38;;;;;;;;;;;14.20;99.90;;;;;;5015133;28;20328;-74
2021/12/31 02:37:03;;;;;;;;;;;14.20;99.90;;;;;;5033069;28;19917;-73
2021/12/31 02:39:29;;;;;;;;;;;14.20;99.90;;;;;;5034981;28;19916;-72
2021/12/31 02:41:54;;;;;;;;;;;14.20;99.90;;;;;;5035256;28;19917;-73
2021/12/31 02:44:20;;;;;;;;;;;14.10;99.90;;;;;;5034879;28;19913;-73
2021/12/31 02:46:45;;;;;;;;;;;14.20;99.90;;;;;;5035017;28;19913;-73
2021/12/31 02:49:11;;;;;;;;;;;14.20;99.90;;;;;;5035014;28;19959;-73
2021/12/31 02:51:36;;;;;;;;;;;14.20;99.90;;;;;;5033689;28;20254;-72
2021/12/31 02:54:05;;;;;;;;;;;14.10;99.90;;;;;;5033989;28;20363;-73
2021/12/31 02:56:31;;;;;;;;;;;14.20;99.90;;;;;;5034912;28;19924;-73
2021/12/31 02:58:57;;;;;;;;;;;14.20;99.90;;;;;;5034625;28;19917;-72
2021/12/31 03:01:23;;;;;;;;;;;14.10;99.90;;;;;;5034370;28;19924;-72
2021/12/31 03:03:49;;;;;;;;;;;14.10;99.90;;;;;;5034428;28;19913;-72
2021/12/31 03:06:15;;;;;;;;;;;14.10;99.90;;;;;;5033974;28;19913;-73
2021/12/31 03:08:43;;;;;;;;;;;14.10;99.90;;;;;;5034406;28;19996;-73
2021/12/31 03:11:09;;;;;;;;;;;14.10;99.90;;;;;;5034058;28;20008;-73
2021/12/31 03:13:35;;;;;;;;;;;14.20;99.90;;;;;;5034090;28;19913;-73
2021/12/31 03:16:01;;;;;;;;;;;14.20;99.90;;;;;;5034157;28;19913;-73
2021/12/31 03:18:27;;;;;;;;;;;14.20;99.90;;;;;;5034277;28;19914;-72
2021/12/31 03:20:57;;;;;;;;;;;14.10;99.90;;;;;;5034469;28;19909;-73
2021/12/31 03:23:27;;;;;;;;;;;14.10;99.90;;;;;;5033055;28;20520;-72
2021/12/31 03:25:53;;;;;;;;;;;14.10;99.90;;;;;;5033960;28;20598;-73
2021/12/31 03:28:19;;;;;;;;;;;14.20;99.90;;;;;;5034615;28;19913;-73
2021/12/31 03:30:45;;;;;;;;;;;14.20;99.90;;;;;;5034036;28;19920;-74
2021/12/31 03:33:11;;;;;;;;;;;14.20;99.90;;;;;;5033069;28;19983;-73
2021/12/31 03:35:36;;;;;;;;;;;14.20;99.90;;;;;;5034047;28;20366;-72
2021/12/31 03:38:03;;;;;;;;;;;14.20;99.90;;;;;;5033835;28;19917;-73
2021/12/31 03:40:28;;;;;;;;;;;14.20;99.90;;;;;;5033972;28;19913;-73
2021/12/31 03:42:53;;;;;;;;;;;14.20;99.90;;;;;;5033765;28;19917;-73
2021/12/31 03:45:19;;;;;;;;;;;14.20;99.90;;;;;;5032676;28;20272;-72
2021/12/31 03:47:44;;;;;;;;;;;14.20;99.90;;;;;;5034141;28;19905;-72
2021/12/31 03:50:10;;;;;;;;;;;14.20;99.90;;;;;;5033576;28;19971;-73
2021/12/31 03:52:36;;;;;;;;;;;14.20;99.90;;;;;;5033617;28;19968;-72
2021/12/31 03:55:02;;;;;;;;;;;14.20;99.90;;;;;;5032510;28;19917;-73
2021/12/31 03:57:28;;;;;;;;;;;14.20;99.90;;;;;;5033475;28;19916;-72
2021/12/31 03:59:54;;;;;;;;;;;14.20;99.90;;;;;;5033758;28;19909;-73
2021/12/31 04:02:20;;;;;;;;;;;14.30;99.90;;;;;;5033139;28;20024;-72
2021/12/31 04:04:45;;;;;;;;;;;14.20;99.90;;;;;;5033021;28;20347;-72
2021/12/31 04:07:11;;;;;;;;;;;14.20;99.90;;;;;;5032595;28;19985;-72
2021/12/31 04:09:36;;;;;;;;;;;14.20;99.90;;;;;;5032073;28;19917;-73
2021/12/31 04:12:02;;;;;;;;;;;14.20;99.90;;;;;;5032645;28;19924;-73
2021/12/31 04:14:27;;;;;;;;;;;14.20;99.90;;;;;;5033184;28;19913;-72
2021/12/31 04:16:53;;;;;;;;;;;14.20;99.90;;;;;;5033086;28;19917;-72
2021/12/31 04:19:18;;;;;;;;;;;14.20;99.90;;;;;;5033290;28;20012;-73
2021/12/31 04:21:44;;;;;;;;;;;14.30;99.90;;;;;;5033047;28;19917;-73
2021/12/31 04:24:27;;;;;;;;;;;14.30;99.90;;;;;;5033440;28;20047;-73
2021/12/31 04:26:53;;;;;;;;;;;14.20;99.90;;;;;;5033279;28;19914;-73
2021/12/31 04:29:18;;;;;;;;;;;14.30;99.90;;;;;;5033250;28;20067;-73
2021/12/31 04:31:44;;;;;;;;;;;14.30;99.90;;;;;;5032668;28;19937;-73
2021/12/31 04:34:09;;;;;;;;;;;14.30;99.90;;;;;;5032916;28;19913;-73
2021/12/31 04:36:35;;;;;;;;;;;14.20;99.90;;;;;;5031910;28;19916;-72
2021/12/31 04:39:00;;;;;;;;;;;14.20;99.90;;;;;;5033187;28;19911;-73
2021/12/31 04:41:26;;;;;;;;;;;14.20;99.90;;;;;;5032751;28;19945;-73
2021/12/31 04:43:51;;;;;;;;;;;14.30;99.90;;;;;;5032077;28;19995;-73
2021/12/31 04:46:17;;;;;;;;;;;14.30;99.90;;;;;;5032441;28;19918;-73
2021/12/31 04:48:42;;;;;;;;;;;14.30;99.90;;;;;;5032459;28;19913;-73
2021/12/31 04:51:08;;;;;;;;;;;14.30;99.90;;;;;;5032825;28;19908;-73
2021/12/31 04:53:34;;;;;;;;;;;14.30;99.90;;;;;;5032465;28;19974;-73
2021/12/31 04:55:59;;;;;;;;;;;14.30;99.90;;;;;;5032441;28;19996;-72
2021/12/31 04:58:25;;;;;;;;;;;14.30;99.90;;;;;;5032500;28;20297;-73
2021/12/31 05:00:50;;;;;;;;;;;14.30;99.90;;;;;;5032412;28;20009;-73
2021/12/31 05:03:16;;;;;;;;;;;14.30;99.90;;;;;;5032402;28;20001;-71
2021/12/31 05:05:41;;;;;;;;;;;14.30;99.90;;;;;;5032205;28;20347;-73
2021/12/31 05:08:07;;;;;;;;;;;14.30;99.90;;;;;;5032304;28;19917;-72
2021/12/31 05:10:33;;;;;;;;;;;14.20;99.90;;;;;;5031058;28;19931;-73
2021/12/31 05:12:59;;;;;;;;;;;14.20;99.90;;;;;;5032239;28;19932;-73
2021/12/31 05:15:27;;;;;;;;;;;14.20;99.90;;;;;;5032129;28;19909;-73
2021/12/31 05:17:54;;;;;;;;;;;14.20;99.90;;;;;;5032520;28;20052;-72
2021/12/31 05:20:20;;;;;;;;;;;14.20;99.90;;;;;;5032213;28;20342;-73
2021/12/31 05:22:45;;;;;;;;;;;14.20;99.90;;;;;;5030916;28;19918;-73
2021/12/31 05:25:11;;;;;;;;;;;14.20;99.90;;;;;;5030917;28;19913;-73
2021/12/31 05:27:36;;;;;;;;;;;14.20;99.90;;;;;;5031123;28;20252;-73
2021/12/31 05:30:02;;;;;;;;;;;14.20;99.90;;;;;;5032569;28;20361;-74
2021/12/31 05:32:28;;;;;;;;;;;14.10;99.90;;;;;;5031674;28;19925;-72
2021/12/31 05:34:53;;;;;;;;;;;14.20;99.90;;;;;;5031866;28;20458;-73
2021/12/31 05:37:19;;;;;;;;;;;14.20;99.90;;;;;;5031878;28;19924;-73
2021/12/31 05:39:44;;;;;;;;;;;14.10;99.90;;;;;;5032109;28;20363;-74
2021/12/31 05:42:10;;;;;;;;;;;14.20;99.90;;;;;;5031891;28;20282;-72
2021/12/31 05:44:36;;;;;;;;;;;14.20;99.90;;;;;;5030714;28;20023;-73
2021/12/31 05:47:01;;;;;;;;;;;14.20;99.90;;;;;;5030758;28;19917;-73
2021/12/31 05:49:27;;;;;;;;;;;14.30;99.90;;;;;;5031671;28;20226;-72
2021/12/31 05:51:52;;;;;;;;;;;14.20;99.90;;;;;;5031639;28;19963;-72
2021/12/31 05:54:18;;;;;;;;;;;14.20;99.90;;;;;;5032123;28;19936;-73
2021/12/31 05:56:43;;;;;;;;;;;14.20;99.90;;;;;;5034736;28;19967;-73
2021/12/31 05:59:09;;;;;;;;;;;14.20;99.90;;;;;;5035938;28;19913;-73
2021/12/31 06:01:34;;;;;;;;;;;14.20;99.90;;;;;;5035617;28;19928;-74
2021/12/31 06:03:59;;;;;;;;;;;14.20;99.90;;;;;;5035649;28;19970;-73
2021/12/31 06:06:25;;;;;;;;;;;14.20;99.90;;;;;;5035764;28;19909;-74
2021/12/31 06:08:50;;;;;;;;;;;14.30;99.90;;;;;;5036155;28;19908;-72
2021/12/31 06:11:16;;;;;;;;;;;14.30;99.90;;;;;;5035623;28;19917;-73
2021/12/31 06:13:43;;;;;;;;;;;14.30;99.90;;;;;;5035716;28;20385;-74
2021/12/31 06:16:10;;;;;;;;;;;14.30;99.90;;;;;;5035582;28;19917;-73
2021/12/31 06:18:36;;;;;;;;;;;14.30;99.90;;;;;;5035498;28;19909;-72
2021/12/31 06:21:02;;;;;;;;;;;14.40;99.90;;;;;;5035486;28;20363;-72
2021/12/31 06:23:28;;;;;;;;;;;14.40;99.90;;;;;;5035188;28;19917;-73
2021/12/31 06:25:53;;;;;;;;;;;14.40;99.90;;;;;;5035242;28;19928;-73
2021/12/31 06:28:19;;;;;;;;;;;14.40;99.90;;;;;;5035148;28;20308;-73
2021/12/31 06:30:44;;;;;;;;;;;14.40;99.90;;;;;;5034968;28;19917;-73
2021/12/31 06:33:10;;;;;;;;;;;14.40;99.90;;;;;;5035207;28;19921;-73
2021/12/31 06:35:35;;;;;;;;;;;14.40;99.90;;;;;;5034981;28;19920;-73
2021/12/31 06:38:02;;;;;;;;;;;14.40;99.90;;;;;;5034855;28;19920;-73
2021/12/31 06:40:31;;;;;;;;;;;14.50;99.90;;;;;;5033776;28;19913;-73
2021/12/31 06:42:56;;;;;;;;;;;14.50;99.90;;;;;;5034816;28;19949;-73
2021/12/31 06:45:22;;;;;;;;;;;14.50;99.90;;;;;;5034719;28;20310;-72
2021/12/31 06:47:47;;;;;;;;;;;14.50;99.90;;;;;;5034092;28;19932;-72
2021/12/31 06:50:12;;;;;;;;;;;14.50;99.90;;;;;;5034849;28;20295;-73
2021/12/31 06:52:39;;;;;;;;;;;14.50;99.90;;;;;;5033390;28;19960;-71
2021/12/31 06:55:05;;;;;;;;;;;14.60;99.90;;;;;;5034645;28;19974;-74
2021/12/31 06:57:30;;;;;;;;;;;14.60;99.90;;;;;;5034597;28;19956;-72
2021/12/31 06:59:56;;;;;;;;;;;14.60;99.90;;;;;;5035005;28;20299;-72
2021/12/31 07:02:21;;;;;;;;;;;14.60;99.90;;;;;;5034642;28;20373;-74
2021/12/31 07:04:47;;;;;;;;;;;14.60;99.90;;;;;;5034419;28;19921;-73
2021/12/31 07:07:13;;;;;;;;;;;14.60;99.90;;;;;;5033987;28;20018;-74
2021/12/31 07:09:39;;;;;;;;;;;14.60;99.90;;;;;;5034523;28;19913;-73
2021/12/31 07:12:05;;;;;;;;;;;14.60;99.90;;;;;;5035003;28;20009;-72
2021/12/31 07:14:30;;;;;;;;;;;14.60;99.90;;;;;;5034536;28;19924;-72
2021/12/31 07:16:56;;;;;;;;;;;14.60;99.90;;;;;;5034166;28;19921;-72
2021/12/31 07:19:21;;;;;;;;;;;14.60;99.90;;;;;;5034253;28;20353;-73
2021/12/31 07:21:47;;;;;;;;;;;14.60;99.90;;;;;;5034091;28;20016;-73
2021/12/31 07:24:12;;;;;;;;;;;14.60;99.90;;;;;;5034658;28;19953;-71
2021/12/31 07:26:38;;;;;;;;;;;14.60;99.90;;;;;;5033253;28;19936;-71
2021/12/31 07:29:03;;;;;;;;;;;14.60;99.90;;;;;;5032980;28;19972;-74
2021/12/31 07:31:29;;;;;;;;;;;14.60;99.90;;;;;;5033722;28;20370;-72
2021/12/31 07:33:54;;;;;;;;;;;14.60;99.90;;;;;;5034323;28;20024;-73
2021/12/31 07:36:20;;;;;;;;;;;14.60;99.90;;;;;;5033879;28;19919;-73
2021/12/31 07:38:57;;;;;;;;;;;14.60;99.90;;;;;;5034181;28;19905;-73
2021/12/31 07:41:23;;;;;;;;;;;14.60;99.90;;;;;;5033838;28;19917;-73
2021/12/31 07:43:48;;;;;;;;;;;14.60;99.90;;;;;;5032743;28;20288;-72
2021/12/31 07:46:14;;;;;;;;;;;14.50;99.90;;;;;;5033981;28;19939;-72
2021/12/31 07:48:39;;;;;;;;;;;14.60;99.90;;;;;;5033957;28;20283;-74
2021/12/31 07:51:05;;;;;;;;;;;14.60;99.90;;;;;;5034118;28;19909;-74
2021/12/31 07:53:31;;;;;;;;;;;14.60;99.90;;;;;;5033787;28;19924;-73
2021/12/31 07:55:56;;;;;;;;;;;14.60;99.90;;;;;;5033547;28;20347;-73
2021/12/31 07:58:24;;;;;;;;;;;14.60;99.90;;;;;;5033474;28;19924;-73
2021/12/31 08:00:49;;;;;;;;;;;14.60;99.90;;;;;;5033522;28;19988;-73
2021/12/31 08:03:15;;;;;;;;;;;14.60;99.90;;;;;;5032577;28;20330;-74
2021/12/31 08:05:40;;;;;;;;;;;14.60;99.90;;;;;;5033305;28;20255;-74
2021/12/31 08:08:06;;;;;;;;;;;14.60;99.90;;;;;;5033522;28;19936;-73
2021/12/31 08:10:35;;;;;;;;;;;14.60;99.90;;;;;;5033257;28;20374;-74
2021/12/31 08:13:01;;;;;;;;;;;14.60;99.90;;;;;;5033269;28;19913;-72
2021/12/31 08:15:27;;;;;;;;;;;14.60;99.90;;;;;;5033434;28;19909;-73
2021/12/31 08:17:54;;;;;;;;;;;14.60;99.90;;;;;;5032943;28;20354;-73
2021/12/31 08:20:19;;;;;;;;;;;14.60;99.90;;;;;;5033303;28;19996;-74
2021/12/31 08:22:45;;;;;;;;;;;14.60;99.90;;;;;;5032856;28;20008;-72
2021/12/31 08:25:11;;;;;;;;;;;14.60;99.90;;;;;;5032755;28;20015;-73
2021/12/31 08:27:36;;;;;;;;;;;14.60;99.90;;;;;;5033006;28;19994;-73
2021/12/31 08:30:02;;;;;;;;;;;14.60;99.90;;;;;;5033167;28;19909;-73
2021/12/31 08:32:27;;;;;;;;;;;14.70;99.90;;;;;;5032786;28;19929;-74
2021/12/31 08:34:53;;;;;;;;;;;14.70;99.90;;;;;;5032801;28;19917;-73
2021/12/31 08:37:18;;;;;;;;;;;14.70;99.90;;;;;;5031976;28;20225;-73
2021/12/31 08:39:44;;;;;;;;;;;14.70;99.90;;;;;;5033057;28;19940;-72
2021/12/31 08:42:09;;;;;;;;;;;14.70;99.90;;;;;;5033320;28;19924;-74
2021/12/31 08:44:35;;;;;;;;;;;14.80;99.90;;;;;;5032633;28;20024;-73
2021/12/31 08:47:00;;;;;;;;;;;14.80;99.90;;;;;;5032774;28;20365;-73
2021/12/31 08:49:26;;;;;;;;;;;14.80;99.90;;;;;;5031647;28;19978;-72
2021/12/31 08:51:51;;;;;;;;;;;14.80;99.90;;;;;;5032557;28;19928;-72
2021/12/31 08:54:17;;;;;;;;;;;14.80;99.90;;;;;;5031795;28;19913;-72
2021/12/31 08:56:45;;;;;;;;;;;14.80;99.90;;;;;;5032462;28;19917;-73
2021/12/31 08:59:12;;;;;;;;;;;14.90;99.90;;;;;;5032279;28;19924;-74
2021/12/31 09:01:38;;;;;;;;;;;14.90;99.90;;;;;;5031913;28;19924;-74
2021/12/31 09:04:04;;;;;;;;;;;14.90;99.90;;;;;;5032008;28;19917;-73
2021/12/31 09:06:29;;;;;;;;;;;14.90;99.90;;;;;;5032102;28;20237;-72
2021/12/31 09:08:55;;;;;;;;;;;14.90;99.90;;;;;;5032397;28;19901;-74
2021/12/31 09:11:21;;;;;;;;;;;14.90;99.90;;;;;;5031961;28;20339;-74
2021/12/31 09:13:47;;;;;;;;;;;14.90;99.90;;;;;;5031721;28;19952;-73
2021/12/31 09:16:13;;;;;;;;;;;14.90;99.90;;;;;;5031821;28;19917;-74
2021/12/31 09:18:38;;;;;;;;;;;14.90;99.90;;;;;;5031003;28;19920;-73
2021/12/31 09:21:04;;;;;;;;;;;14.90;99.90;;;;;;5032236;28;19913;-73
2021/12/31 09:23:29;;;;;;;;;;;14.90;99.90;;;;;;5030775;28;20013;-74
2021/12/31 09:25:56;;;;;;;;;;;14.90;99.90;;;;;;5032122;28;19913;-73
2021/12/31 09:28:22;;;;;;;;;;;14.90;99.90;;;;;;5032084;28;19913;-73
2021/12/31 09:30:48;;;;;;;;;;;14.90;99.90;;;;;;5031427;28;19955;-73
2021/12/31 09:33:13;;;;;;;;;;;14.90;99.90;;;;;;5032380;28;19953;-74
2021/12/31 09:35:39;;;;;;;;;;;14.90;99.90;;;;;;5031882;28;20420;-72
2021/12/31 09:38:08;;;;;;;;;;;14.90;99.90;;;;;;5031989;28;19996;-73
2021/12/31 09:40:37;;;;;;;;;;;14.90;99.90;;;;;;5031668;28;20204;-72
2021/12/31 09:43:08;;;;;;;;;;;14.80;99.90;;;;;;5031621;28;19956;-73
2021/12/31 09:45:34;;;;;;;;;;;14.80;99.90;;;;;;5031926;28;19964;-73
2021/12/31 09:48:00;;;;;;;;;;;14.80;99.90;;;;;;5032030;28;19905;-73
2021/12/31 09:50:28;;;;;;;;;;;14.80;99.90;;;;;;5031377;28;19992;-74
2021/12/31 09:52:54;;;;;;;;;;;14.90;99.90;;;;;;5031284;28;19917;-73
2021/12/31 09:55:33;;;;;;;;;;;14.80;99.90;;;;;;5031213;28;19967;-73
2021/12/31 09:57:58;;;;;;;;;;;14.90;99.90;;;;;;5031350;28;20275;-73
2021/12/31 10:00:26;;;;;;;;;;;14.90;99.90;;;;;;5031716;28;19963;-73
2021/12/31 10:03:08;;;;;;;;;;;14.90;99.90;;;;;;5031801;28;19909;-72
2021/12/31 10:05:44;;;;;;;;;;;14.90;99.90;;;;;;5030930;28;19936;-73
2021/12/31 10:08:16;;;;;;;;;;;14.90;99.90;;;;;;5031389;28;19972;-74
2021/12/31 10:10:42;;;;;;;;;;;14.80;99.90;;;;;;5030915;28;19952;-74
2021/12/31 10:13:07;;;;;;;;;;;14.90;99.90;;;;;;5031543;28;20044;-73
2021/12/31 10:15:40;;;;;;;;;;;14.90;99.90;;;;;;5031589;28;19909;-73
2021/12/31 10:18:09;;;;;;;;;;;14.80;99.90;;;;;;5031832;28;20259;-74
2021/12/31 10:20:50;;;;;;;;;;;14.80;99.90;;;;;;5031400;28;19917;-72
2021/12/31 10:23:16;;;;;;;;;;;14.80;99.90;;;;;;5031287;28;20004;-73
2021/12/31 10:25:42;;;;;;;;;;;14.80;99.90;;;;;;5031328;28;19925;-73
2021/12/31 10:28:11;;;;;;;;;;;14.80;99.90;;;;;;5031338;28;20247;-73
2021/12/31 10:30:37;;;;;;;;;;;14.80;99.90;;;;;;5030457;28;19910;-73
2021/12/31 10:33:02;;;;;;;;;;;14.90;99.90;;;;;;5031509;28;20358;-74
2021/12/31 10:35:36;;;;;;;;;;;14.80;99.90;;;;;;5031297;28;19975;-73
2021/12/31 10:38:06;;;;;;;;;;;14.80;99.90;;;;;;5031189;28;20207;-75
2021/12/31 10:40:45;;;;;;;;;;;14.90;99.90;;;;;;5031418;28;19944;-74
2021/12/31 10:43:15;;;;;;;;;;;14.80;99.90;;;;;;5034634;28;20019;-73
2021/12/31 10:45:59;;;;;;;;;;;14.90;99.90;;;;;;5034550;28;20008;-74
2021/12/31 10:48:37;;;;;;;;;;;14.90;99.90;;;;;;5034350;28;19909;-73
2021/12/31 10:51:02;;;;;;;;;;;14.90;99.90;;;;;;5034894;28;20247;-72
2021/12/31 10:53:34;;;;;;;;;;;14.90;99.90;;;;;;5034273;28;19914;-74
2021/12/31 10:56:04;;;;;;;;;;;14.90;99.90;;;;;;5034531;28;19924;-72
2021/12/31 10:58:30;;;;;;;;;;;14.90;99.90;;;;;;5034638;28;19920;-74
2021/12/31 11:00:58;;;;;;;;;;;14.90;99.90;;;;;;5034294;28;20300;-74
2021/12/31 11:03:24;;;;;;;;;;;14.90;99.90;;;;;;5032905;28;19917;-72
2021/12/31 11:05:49;;;;;;;;;;;14.90;99.90;;;;;;5033764;28;20386;-72
2021/12/31 11:08:15;;;;;;;;;;;14.90;99.90;;;;;;5034200;28;19913;-73
2021/12/31 11:10:41;;;;;;;;;;;14.90;99.90;;;;;;5034359;28;19917;-74
2021/12/31 11:13:11;;;;;;;;;;;15.00;99.90;;;;;;5034137;28;19917;-73
2021/12/31 11:15:36;;;;;;;;;;;15.00;99.90;;;;;;5034311;28;19936;-73
2021/12/31 11:18:02;;;;;;;;;;;15.00;99.90;;;;;;5034508;28;20247;-74
2021/12/31 11:20:28;;;;;;;;;;;15.00;99.90;;;;;;5034313;28;19917;-73
2021/12/31 11:22:54;;;;;;;;;;;15.00;99.80;;;;;;5034158;28;19921;-72
2021/12/31 11:25:27;;;;;;;;;;;15.10;99.90;;;;;;5033802;28;19928;-74
2021/12/31 11:27:53;;;;;;;;;;;15.10;99.80;;;;;;5033857;28;19935;-73
2021/12/31 11:30:29;;;;;;;;;;;15.10;99.80;;;;;;5032900;28;19917;-72
2021/12/31 11:32:57;;;;;;;;;;;15.10;99.90;;;;;;5033900;28;19924;-75
2021/12/31 11:35:27;;;;;;;;;;;15.10;99.80;;;;;;5033020;28;21234;-74
2021/12/31 11:37:53;;;;;;;;;;;15.10;99.80;;;;;;5033655;28;19932;-74
2021/12/31 11:40:38;;;;;;;;;;;15.10;99.80;;;;;;5033577;28;19996;-74
2021/12/31 11:43:19;;;;;;;;;;;15.10;99.90;;;;;;5033454;28;19917;-74
2021/12/31 11:46:03;;;;;;;;;;;15.10;99.70;;;;;;5033442;28;20401;-73
2021/12/31 11:48:44;;;;;;;;;;;15.10;99.60;;;;;;5033669;28;20101;-73
2021/12/31 11:51:10;;;;;;;;;;;15.10;99.70;;;;;;5034063;28;19955;-74
2021/12/31 11:53:54;;;;;;;;;;;15.10;99.60;;;;;;5033459;28;19913;-73
2021/12/31 11:56:39;;;;;;;;;;;15.00;99.50;;;;;;5032181;28;19936;-73
2021/12/31 11:59:08;;;;;;;;;;;15.00;99.60;;;;;;5032459;28;19917;-73
2021/12/31 12:01:37;;;;;;;;;;;15.00;99.50;;;;;;5033056;28;19951;-75
2021/12/31 12:04:20;;;;;;;;;;;15.00;99.60;;;;;;5033188;28;19917;-74
2021/12/31 12:06:56;;;;;;;;;;;15.00;99.60;;;;;;5033242;28;19913;-74
2021/12/31 12:09:23;;;;;;;;;;;15.00;99.60;;;;;;5033282;28;19913;-73
2021/12/31 12:12:08;;;;;;;;;;;15.00;99.60;;;;;;5033590;28;19905;-73
2021/12/31 12:14:36;;;;;;;;;;;15.00;99.50;;;;;;5033730;28;19921;-73
2021/12/31 12:17:02;;;;;;;;;;;15.00;99.50;;;;;;5033068;28;19939;-73
2021/12/31 12:20:00;;;;;;;;;;;15.00;99.50;;;;;;5032986;28;20255;-74
2021/12/31 12:22:35;;;;;;;;;;;15.00;99.60;;;;;;5031591;28;20002;-74
2021/12/31 12:25:03;;;;;;;;;;;15.00;99.50;;;;;;5032787;28;19913;-73
2021/12/31 12:27:28;;;;;;;;;;;15.00;99.40;;;;;;5032066;28;19909;-72
2021/12/31 12:29:55;;;;;;;;;;;15.00;99.40;;;;;;5032929;28;19920;-73
2021/12/31 12:34:58;;;;;;;;;;;15.00;99.40;;;;;;5032497;28;20335;-73
2021/12/31 12:37:30;;;;;;;;;;;15.00;99.40;;;;;;5032569;28;19928;-73
2021/12/31 12:40:04;;;;;;;;;;;15.00;99.30;;;;;;5032521;28;19932;-73
2021/12/31 12:42:29;;;;;;;;;;;15.00;99.40;;;;;;5032492;28;19924;-73
2021/12/31 12:45:03;;;;;;;;;;;15.00;99.30;;;;;;5031810;28;19905;-74
2021/12/31 12:47:29;;;;;;;;;;;15.00;99.30;;;;;;5032313;28;19913;-74
2021/12/31 12:49:58;;;;;;;;;;;15.00;99.30;;;;;;5032497;28;19917;-72
2021/12/31 12:52:24;;;;;;;;;;;15.00;99.20;;;;;;5031221;28;19923;-72
2021/12/31 12:55:08;;;;;;;;;;;15.00;99.10;;;;;;5032159;28;20391;-73
2021/12/31 12:57:34;;;;;;;;;;;15.00;99.20;;;;;;5032091;28;20400;-73
2021/12/31 13:00:00;;;;;;;;;;;15.00;99.10;;;;;;5032699;28;19913;-74
2021/12/31 13:02:45;;;;;;;;;;;15.00;99.00;;;;;;5032054;28;19917;-74
2021/12/31 13:05:12;;;;;;;;;;;15.00;99.10;;;;;;5031386;28;20354;-73
2021/12/31 13:07:48;;;;;;;;;;;15.00;99.10;;;;;;5032032;28;19917;-73
2021/12/31 13:10:14;;;;;;;;;;;15.10;99.20;;;;;;5032022;28;19964;-73
2021/12/31 13:12:39;;;;;;;;;;;15.10;99.30;;;;;;5031815;28;19940;-73
2021/12/31 13:15:05;;;;;;;;;;;15.10;99.30;;;;;;5031217;28;20327;-74
2021/12/31 13:17:32;;;;;;;;;;;15.10;99.30;;;;;;5031858;28;19914;-73
2021/12/31 13:20:05;;;;;;;;;;;15.10;99.20;;;;;;5031083;28;19932;-72
2021/12/31 13:22:32;;;;;;;;;;;15.10;99.20;;;;;;5031671;28;19924;-74
2021/12/31 13:24:58;;;;;;;;;;;15.10;99.30;;;;;;5031532;28;19999;-74
2021/12/31 13:27:23;;;;;;;;;;;15.10;99.20;;;;;;5031692;28;20287;-74
2021/12/31 13:29:49;;;;;;;;;;;15.10;99.10;;;;;;5030876;28;19909;-74
2021/12/31 13:32:19;;;;;;;;;;;15.20;99.00;;;;;;5031425;28;20334;-73
2021/12/31 13:34:46;;;;;;;;;;;15.10;99.00;;;;;;5031756;28;19917;-73
2021/12/31 13:37:23;;;;;;;;;;;15.20;98.90;;;;;;5030558;28;19913;-73
2021/12/31 13:39:49;;;;;;;;;;;15.20;98.80;;;;;;5031772;28;19924;-73
2021/12/31 13:42:18;;;;;;;;;;;15.20;98.70;;;;;;5030974;28;19916;-73
2021/12/31 13:44:48;;;;;;;;;;;15.20;98.60;;;;;;5031994;28;19968;-74
2021/12/31 13:47:15;;;;;;;;;;;15.20;98.60;;;;;;5031860;28;19952;-72
2021/12/31 13:49:46;;;;;;;;;;;15.20;98.60;;;;;;5031646;28;19913;-73
2021/12/31 13:52:16;;;;;;;;;;;15.20;98.60;;;;;;5031772;28;19952;-73
2021/12/31 13:54:43;;;;;;;;;;;15.20;98.70;;;;;;5030848;28;19913;-73
2021/12/31 13:57:19;;;;;;;;;;;15.20;98.70;;;;;;5032269;28;19933;-74
2021/12/31 13:59:46;;;;;;;;;;;15.20;98.60;;;;;;5031828;28;19917;-74
2021/12/31 14:02:17;;;;;;;;;;;15.20;98.70;;;;;;5031470;28;19921;-73
2021/12/31 14:04:55;;;;;;;;;;;15.20;98.60;;;;;;5031623;28;20343;-74
2021/12/31 14:07:29;;;;;;;;;;;15.20;98.40;;;;;;5031570;28;19961;-73
2021/12/31 14:09:56;;;;;;;;;;;15.30;98.50;;;;;;5031743;28;20351;-73
2021/12/31 14:12:21;;;;;;;;;;;15.30;98.40;;;;;;5031615;28;19964;-73
2021/12/31 14:14:47;;;;;;;;;;;15.40;98.30;;;;;;5031537;28;19948;-74
2021/12/31 14:17:12;;;;;;;;;;;15.40;98.20;;;;;;5033281;28;20304;-73
2021/12/31 14:19:39;;;;;;;;;;;15.40;98.30;;;;;;5035150;28;20382;-74
2021/12/31 14:22:09;;;;;;;;;;;15.40;98.20;;;;;;5034049;28;19921;-73
2021/12/31 14:24:34;;;;;;;;;;;15.40;98.40;;;;;;5035076;28;20004;-73